MOL Contribution — 7KAD — position and weather

sailwx.info

Track history (hours):
 
Tides and Currents Weather Stations Pressure Air Temp Water Temp Dewpoint Dewpoint Depression Visibility Wind Speed Wind Dir Waves Ship Positions

MOL Contribution

Last reported at 2017-Nov-20 00:26 UTC. Time now 2017-Nov-23 01:30 UTC.
Position N 22°09' E 114°14'.

Length 316 m; draft 12.1 m.

Type: Ship (hazmat cat A). MMSI: 431496000.

Date/timePositionNaut miles runAvg speedWind from/ knotsBaromVisibWave heightAir tempDewpointWater temp
2017-Nov-20 00:26N 22°09' E 114°14'4 9.3
2017-Nov-19 23:59N 22°08' E 114°18'510.5
2017-Nov-19 23:29N 22°07' E 114°23'510.9
2017-Nov-19 23:00N 22°07' E 114°29'611.4
2017-Nov-19 22:30N 22°07' E 114°35'5 9.6
2017-Nov-19 22:00N 22°07' E 114°40'511.0
2017-Nov-19 21:30N 22°09' E 114°46'611.4
2017-Nov-19 21:00N 22°10' E 114°52'612.2
2017-Nov-19 20:30N 22°12' E 114°59'713.1
2017-Nov-19 20:00N 22°13' E 115°06'712.9
2017-Nov-19 19:30N 22°15' E 115°12'612.4
2017-Nov-19 19:00N 22°16' E 115°19'  
2017-Nov-16 08:32N 34°48' E 139°37'120.2
2017-Nov-16 08:29N 34°49' E 139°37'1020.3
2017-Nov-16 08:00N 34°59' E 139°40'917.2
2017-Nov-16 07:30N 35°07' E 139°43'612.0
2017-Nov-16 07:00N 35°13' E 139°46'612.1
2017-Nov-16 06:30N 35°18' E 139°44'713.1
2017-Nov-16 06:01N 35°25' E 139°44'815.5
2017-Nov-16 05:30N 35°30' E 139°51'713.2
2017-Nov-16 05:00N 35°36' E 139°47'1 2.5
2017-Nov-16 04:30N 35°36' E 139°46'0 0.1
2017-Nov-16 03:58N 35°36' E 139°46'0 0.0
2017-Nov-16 03:28N 35°36' E 139°46'0 0.0
2017-Nov-16 02:58N 35°36' E 139°46'0 0.0
2017-Nov-16 02:28N 35°36' E 139°46'0 0.0
2017-Nov-16 01:58N 35°36' E 139°46'0 0.0
2017-Nov-16 01:28N 35°36' E 139°46'0 0.0
2017-Nov-16 00:58N 35°36' E 139°46'0 0.0
2017-Nov-16 00:28N 35°36' E 139°46'0 0.0
2017-Nov-15 23:58N 35°36' E 139°46'0 0.0
2017-Nov-15 23:28N 35°36' E 139°46'0 0.0
2017-Nov-15 22:58N 35°36' E 139°46'0 0.0
2017-Nov-15 22:28N 35°36' E 139°46'0 0.0
2017-Nov-15 21:58N 35°36' E 139°46'0 0.0
2017-Nov-15 21:28N 35°36' E 139°46'0 0.0
2017-Nov-15 20:55N 35°36' E 139°46'0 0.0
2017-Nov-15 20:28N 35°36' E 139°46'0 0.0
2017-Nov-15 19:58N 35°36' E 139°46'0 0.0
2017-Nov-15 19:28N 35°36' E 139°46'0 0.0
2017-Nov-15 18:58N 35°36' E 139°46'0 0.0
2017-Nov-15 18:28N 35°36' E 139°46'0 0.0
2017-Nov-15 17:58N 35°36' E 139°46'0 0.0
2017-Nov-15 17:28N 35°36' E 139°46'0 0.0
2017-Nov-15 16:58N 35°36' E 139°46'0 0.0
2017-Nov-15 16:28N 35°36' E 139°46'0 0.0
2017-Nov-15 15:58N 35°36' E 139°46'0 0.0
2017-Nov-15 15:25N 35°36' E 139°46'0 0.0
2017-Nov-15 14:58N 35°36' E 139°46'0 0.0
2017-Nov-15 14:22N 35°36' E 139°46'0 0.0
2017-Nov-15 13:58N 35°36' E 139°46'0 0.0
2017-Nov-15 13:28N 35°36' E 139°46'0 0.0
2017-Nov-15 12:58N 35°36' E 139°46'0 0.0
2017-Nov-15 12:28N 35°36' E 139°46'0 0.0
2017-Nov-15 11:58N 35°36' E 139°46'0 0.0
2017-Nov-15 11:28N 35°36' E 139°46'0 0.0
2017-Nov-15 10:58N 35°36' E 139°46'0 0.0
2017-Nov-15 10:28N 35°36' E 139°46'0 0.1
2017-Nov-15 10:00N 35°36' E 139°46'1 2.7
2017-Nov-15 09:30N 35°35' E 139°47'4 7.7
2017-Nov-15 09:00N 35°33' E 139°51'4 7.5
2017-Nov-15 08:30N 35°30' E 139°53'713.1
2017-Nov-15 08:00N 35°25' E 139°48'713.2
2017-Nov-15 07:30N 35°20' E 139°44'612.3
2017-Nov-15 07:00N 35°14' E 139°47'510.3
2017-Nov-15 06:30N 35°09' E 139°46'611.2
2017-Nov-15 06:00N 35°03' E 139°44'5 9.8
2017-Nov-15 05:30N 34°59' E 139°42'510.8
2017-Nov-15 05:01N 34°53' E 139°41'713.8
2017-Nov-15 04:30N 34°48' E 139°47'  
Track history (hours):
 
Tides and Currents Weather Stations Pressure Air Temp Water Temp Dewpoint Dewpoint Depression Visibility Wind Speed Wind Dir Waves Ship Positions

MOL Contribution

Last reported at 2017-Nov-20 00:26 UTC. Time now 2017-Nov-23 01:30 UTC.
Position N 22°09' E 114°14'.

Length 316 m; draft 12.1 m.

Type: Ship (hazmat cat A). MMSI: 431496000.

Date/timePositionNaut miles runAvg speedWind from/ knotsBaromVisibWave heightAir tempDewpointWater temp
2017-Nov-20 00:26N 22°09' E 114°14'4 9.3
2017-Nov-19 23:59N 22°08' E 114°18'510.5
2017-Nov-19 23:29N 22°07' E 114°23'510.9
2017-Nov-19 23:00N 22°07' E 114°29'611.4
2017-Nov-19 22:30N 22°07' E 114°35'5 9.6
2017-Nov-19 22:00N 22°07' E 114°40'511.0
2017-Nov-19 21:30N 22°09' E 114°46'611.4
2017-Nov-19 21:00N 22°10' E 114°52'612.2
2017-Nov-19 20:30N 22°12' E 114°59'713.1
2017-Nov-19 20:00N 22°13' E 115°06'712.9
2017-Nov-19 19:30N 22°15' E 115°12'612.4
2017-Nov-19 19:00N 22°16' E 115°19'  
2017-Nov-16 08:32N 34°48' E 139°37'120.2
2017-Nov-16 08:29N 34°49' E 139°37'1020.3
2017-Nov-16 08:00N 34°59' E 139°40'917.2
2017-Nov-16 07:30N 35°07' E 139°43'612.0
2017-Nov-16 07:00N 35°13' E 139°46'612.1
2017-Nov-16 06:30N 35°18' E 139°44'713.1
2017-Nov-16 06:01N 35°25' E 139°44'815.5
2017-Nov-16 05:30N 35°30' E 139°51'713.2
2017-Nov-16 05:00N 35°36' E 139°47'1 2.5
2017-Nov-16 04:30N 35°36' E 139°46'0 0.1
2017-Nov-16 03:58N 35°36' E 139°46'0 0.0
2017-Nov-16 03:28N 35°36' E 139°46'0 0.0
2017-Nov-16 02:58N 35°36' E 139°46'0 0.0
2017-Nov-16 02:28N 35°36' E 139°46'0 0.0
2017-Nov-16 01:58N 35°36' E 139°46'0 0.0
2017-Nov-16 01:28N 35°36' E 139°46'0 0.0
2017-Nov-16 00:58N 35°36' E 139°46'0 0.0
2017-Nov-16 00:28N 35°36' E 139°46'0 0.0
2017-Nov-15 23:58N 35°36' E 139°46'0 0.0
2017-Nov-15 23:28N 35°36' E 139°46'0 0.0
2017-Nov-15 22:58N 35°36' E 139°46'0 0.0
2017-Nov-15 22:28N 35°36' E 139°46'0 0.0
2017-Nov-15 21:58N 35°36' E 139°46'0 0.0
2017-Nov-15 21:28N 35°36' E 139°46'0 0.0
2017-Nov-15 20:55N 35°36' E 139°46'0 0.0
2017-Nov-15 20:28N 35°36' E 139°46'0 0.0
2017-Nov-15 19:58N 35°36' E 139°46'0 0.0
2017-Nov-15 19:28N 35°36' E 139°46'0 0.0
2017-Nov-15 18:58N 35°36' E 139°46'0 0.0
2017-Nov-15 18:28N 35°36' E 139°46'0 0.0
2017-Nov-15 17:58N 35°36' E 139°46'0 0.0
2017-Nov-15 17:28N 35°36' E 139°46'0 0.0
2017-Nov-15 16:58N 35°36' E 139°46'0 0.0
2017-Nov-15 16:28N 35°36' E 139°46'0 0.0
2017-Nov-15 15:58N 35°36' E 139°46'0 0.0
2017-Nov-15 15:25N 35°36' E 139°46'0 0.0
2017-Nov-15 14:58N 35°36' E 139°46'0 0.0
2017-Nov-15 14:22N 35°36' E 139°46'0 0.0
2017-Nov-15 13:58N 35°36' E 139°46'0 0.0
2017-Nov-15 13:28N 35°36' E 139°46'0 0.0
2017-Nov-15 12:58N 35°36' E 139°46'0 0.0
2017-Nov-15 12:28N 35°36' E 139°46'0 0.0
2017-Nov-15 11:58N 35°36' E 139°46'0 0.0
2017-Nov-15 11:28N 35°36' E 139°46'0 0.0
2017-Nov-15 10:58N 35°36' E 139°46'0 0.0
2017-Nov-15 10:28N 35°36' E 139°46'0 0.1
2017-Nov-15 10:00N 35°36' E 139°46'1 2.7
2017-Nov-15 09:30N 35°35' E 139°47'4 7.7
2017-Nov-15 09:00N 35°33' E 139°51'4 7.5
2017-Nov-15 08:30N 35°30' E 139°53'713.1
2017-Nov-15 08:00N 35°25' E 139°48'713.2
2017-Nov-15 07:30N 35°20' E 139°44'612.3
2017-Nov-15 07:00N 35°14' E 139°47'510.3
2017-Nov-15 06:30N 35°09' E 139°46'611.2
2017-Nov-15 06:00N 35°03' E 139°44'5 9.8
2017-Nov-15 05:30N 34°59' E 139°42'510.8
2017-Nov-15 05:01N 34°53' E 139°41'713.8
2017-Nov-15 04:30N 34°48' E 139°47'  

Dump ship's entire track history